Time;durP1;ratioP1;P1;durP2;ratioP2;P2;SDS_P1;SDS_P2;PMS_P1;PMS_P2;Temp;Humidity;BMP_temperature;BMP_pressure;BME280_temperature;BME280_humidity;BME280_pressure;Samples;Min_cycle;Max_cycle;Signal;HPM_P1;HPM_P2
2022/08/29 00:00:05;;;;;;;22.25;15.07;;;;;;;19.36;61.46;99995.41;5017423;28;20488;-76
2022/08/29 00:02:31;;;;;;;24.42;14.35;;;;;;;19.22;61.72;99992.44;5035291;28;20504;-79
2022/08/29 00:04:57;;;;;;;26.70;15.10;;;;;;;19.09;61.99;99991.06;5035087;28;20060;-77
2022/08/29 00:07:23;;;;;;;33.55;15.45;;;;;;;19.08;62.23;99993.94;5035136;28;20412;-78
2022/08/29 00:09:49;;;;;;;19.90;15.05;;;;;;;19.13;61.78;99992.41;5034030;28;20094;-77
2022/08/29 00:12:15;;;;;;;28.10;15.55;;;;;;;19.14;62.08;100004.97;5001161;28;20404;-77
2022/08/29 00:14:41;;;;;;;33.20;16.00;;;;;;;19.16;61.74;99997.53;5034277;28;20173;-76
2022/08/29 00:17:06;;;;;;;24.27;14.73;;;;;;;19.14;62.11;100002.28;5033769;28;20041;-77
2022/08/29 00:19:32;;;;;;;28.15;14.57;;;;;;;19.12;61.75;100003.44;5050333;28;20083;-76
2022/08/29 00:21:59;;;;;;;28.77;16.48;;;;;;;19.10;62.04;99995.44;5017197;28;20187;-74
2022/08/29 00:24:25;;;;;;;28.70;16.23;;;;;;;19.10;62.11;100002.72;5034608;28;20071;-76
2022/08/29 00:26:51;;;;;;;31.30;17.27;;;;;;;18.97;62.51;100008.59;5035221;28;20099;-77
2022/08/29 00:29:17;;;;;;;26.38;16.40;;;;;;;18.98;62.59;99999.47;5032580;28;20056;-77
2022/08/29 00:31:43;;;;;;;20.20;16.20;;;;;;;18.95;62.51;100004.34;5050010;28;20041;-76
2022/08/29 00:34:09;;;;;;;33.90;18.70;;;;;;;18.89;62.77;100000.44;5034457;28;20416;-77
2022/08/29 00:36:36;;;;;;;30.17;18.40;;;;;;;18.88;62.96;100004.13;5034480;28;20056;-76
2022/08/29 00:39:03;;;;;;;27.10;17.33;;;;;;;18.94;62.89;100008.91;5034925;28;20527;-76
2022/08/29 00:41:29;;;;;;;36.22;17.83;;;;;;;18.91;62.23;100010.06;5016881;28;20041;-77
2022/08/29 00:43:55;;;;;;;28.45;16.88;;;;;;;18.91;62.77;100009.22;5033463;28;20056;-77
2022/08/29 00:46:37;;;;;;;33.00;15.70;;;;;;;18.90;62.46;100002.13;5033089;28;20045;-77
2022/08/29 00:49:32;;;;;;;27.85;17.52;;;;;;;18.78;63.14;100003.41;5017334;28;20046;-77
2022/08/29 00:52:06;;;;;;;28.77;17.17;;;;;;;18.72;63.38;100004.03;5016945;28;20045;-77
2022/08/29 00:54:32;;;;;;;24.55;16.77;;;;;;;18.81;62.87;100003.09;5000438;28;20045;-76
2022/08/29 00:56:59;;;;;;;30.65;17.58;;;;;;;18.85;62.97;100001.78;5034002;28;20053;-75
2022/08/29 00:59:33;;;;;;;31.20;16.83;;;;;;;18.83;63.05;100006.47;5032817;28;20044;-76
2022/08/29 01:02:00;;;;;;;32.10;16.63;;;;;;;18.67;63.07;99991.78;5016781;28;20061;-76
2022/08/29 01:04:26;;;;;;;26.17;17.13;;;;;;;18.70;63.16;100006.88;5033925;28;20052;-76
2022/08/29 01:06:53;;;;;;;30.50;16.50;;;;;;;18.72;63.15;100006.75;5016149;28;20041;-76
2022/08/29 01:09:20;;;;;;;27.25;17.55;;;;;;;18.64;63.46;100012.91;4999697;28;20095;-76
2022/08/29 01:14:33;;;;;;;31.30;17.23;;;;;;;18.67;63.59;100013.47;5019221;28;20064;-76
2022/08/29 01:17:01;;;;;;;32.00;18.70;;;;;;;18.60;63.60;100015.09;4999586;28;20037;-77
2022/08/29 01:19:53;;;;;;;34.67;21.10;;;;;;;18.62;64.34;100018.50;5032451;28;20057;-77
2022/08/29 01:22:37;;;;;;;26.98;18.55;;;;;;;18.59;64.35;100010.69;5032491;28;20276;-77
2022/08/29 01:25:09;;;;;;;40.00;19.25;;;;;;;18.67;64.01;100008.03;5015863;28;20140;-77
2022/08/29 01:27:40;;;;;;;31.17;19.45;;;;;;;18.79;63.48;100013.22;5033500;28;20581;-77
2022/08/29 01:30:08;;;;;;;32.50;18.20;;;;;;;18.80;63.67;99995.97;5032351;28;20041;-78
2022/08/29 01:32:34;;;;;;;24.45;17.52;;;;;;;18.89;63.57;100019.41;4999471;28;20049;-77
2022/08/29 01:35:01;;;;;;;35.85;17.58;;;;;;;18.73;63.66;100027.41;5015805;28;20409;-77
2022/08/29 01:37:32;;;;;;;24.42;17.55;;;;;;;18.72;63.62;100025.69;5031774;28;20042;-78
2022/08/29 01:39:58;;;;;;;33.95;18.02;;;;;;;18.77;63.87;100028.78;5031932;28;20085;-76
2022/08/29 01:42:24;;;;;;;41.05;19.60;;;;;;;18.74;63.57;100011.00;5033293;28;20077;-77
2022/08/29 01:44:53;;;;;;;31.38;19.63;;;;;;;18.59;64.17;100029.66;5031845;28;20045;-77
2022/08/29 01:47:19;;;;;;;30.35;18.77;;;;;;;18.44;64.66;100028.50;5031788;28;20045;-76
2022/08/29 01:49:45;;;;;;;40.60;19.58;;;;;;;18.37;65.11;100022.03;5031821;28;20045;-77
2022/08/29 01:52:11;;;;;;;40.45;20.40;;;;;;;18.29;65.58;100019.25;5015261;28;20045;-77
2022/08/29 01:54:43;;;;;;;35.08;20.23;;;;;;;18.32;65.56;100027.06;5031817;28;20086;-77
2022/08/29 01:57:11;;;;;;;36.67;19.83;;;;;;;18.36;65.80;100025.75;5015225;28;20053;-77
2022/08/29 01:59:37;;;;;;;36.88;20.10;;;;;;;18.40;65.40;100038.81;5031918;28;20378;-76
2022/08/29 02:02:09;;;;;;;39.97;20.80;;;;;;;18.42;65.45;100028.66;5031637;28;20044;-77
2022/08/29 02:04:35;;;;;;;53.28;21.10;;;;;;;18.36;65.66;100041.97;5015563;28;20052;-76
2022/08/29 02:07:01;;;;;;;30.70;18.83;;;;;;;18.25;66.40;100036.81;5048471;28;20045;-77
2022/08/29 02:09:28;;;;;;;38.40;19.83;;;;;;;18.09;66.55;100037.47;5015250;28;20099;-77
2022/08/29 02:11:56;;;;;;;40.30;20.08;;;;;;;18.25;66.16;100034.09;5015065;28;20046;-76
2022/08/29 02:14:23;;;;;;;44.40;20.95;;;;;;;18.23;66.40;100047.78;5032714;28;20519;-77
2022/08/29 02:16:50;;;;;;;73.57;22.95;;;;;;;18.36;66.04;100039.28;5032480;28;20051;-77
2022/08/29 02:19:17;;;;;;;89.75;24.20;;;;;;;18.39;66.00;100036.22;4999328;28;20132;-76
2022/08/29 02:21:43;;;;;;;91.50;26.30;;;;;;;18.42;65.73;100041.34;4999051;28;20049;-76
2022/08/29 02:24:09;;;;;;;108.57;25.83;;;;;;;18.45;65.92;100038.31;5033844;28;20033;-75
2022/08/29 02:26:35;;;;;;;107.47;23.90;;;;;;;18.35;65.94;100032.16;5022933;28;20091;-78
2022/08/29 02:29:01;;;;;;;94.93;24.58;;;;;;;18.35;66.09;100034.84;5015340;28;20057;-85
2022/08/29 02:31:27;;;;;;;76.18;23.70;;;;;;;18.26;66.04;100022.25;5015351;28;20519;-81
2022/08/29 02:33:54;;;;;;;115.38;24.48;;;;;;;18.27;66.42;100032.06;5032989;28;20045;-77
2022/08/29 02:36:20;;;;;;;133.95;26.70;;;;;;;18.24;66.45;100032.38;5032418;28;20042;-76
2022/08/29 02:38:47;;;;;;;121.03;25.83;;;;;;;18.14;66.90;100022.50;5031207;28;20076;-75
2022/08/29 02:41:15;;;;;;;112.90;27.05;;;;;;;18.40;66.01;100032.53;5032506;28;20213;-77
2022/08/29 02:43:41;;;;;;;103.43;26.15;;;;;;;18.47;66.02;100033.63;4998369;28;20120;-77
2022/08/29 02:46:11;;;;;;;107.97;30.27;;;;;;;18.40;66.43;100033.38;5030985;28;20132;-75
2022/08/29 02:48:37;;;;;;;119.50;29.02;;;;;;;18.49;66.13;100036.16;5031474;28;20562;-78
2022/08/29 02:51:03;;;;;;;124.68;29.73;;;;;;;18.52;65.78;100033.16;4999027;28;20037;-76
2022/08/29 02:53:29;;;;;;;142.45;30.67;;;;;;;18.50;66.27;100037.84;5018226;28;20496;-76
2022/08/29 02:55:56;;;;;;;105.07;27.42;;;;;;;18.60;65.94;100031.34;5046782;28;20057;-74
2022/08/29 02:58:23;;;;;;;147.23;29.60;;;;;;;18.76;65.46;100037.91;5018126;28;20041;-75
2022/08/29 03:00:50;;;;;;;133.40;30.38;;;;;;;18.69;65.67;100026.81;5018509;28;20130;-77
2022/08/29 03:03:16;;;;;;;148.35;29.70;;;;;;;18.91;65.12;100039.03;5035038;28;20052;-78
2022/08/29 03:05:42;;;;;;;118.57;28.10;;;;;;;18.91;64.99;100036.31;5036311;28;20049;-82
2022/08/29 03:08:10;;;;;;;111.15;28.42;;;;;;;18.90;65.34;100040.06;5020995;28;20041;-81
2022/08/29 03:10:36;;;;;;;105.63;28.10;;;;;;;18.87;65.29;100034.94;5035370;28;20095;-76
2022/08/29 03:13:03;;;;;;;99.03;28.88;;;;;;;19.10;64.97;100036.09;5002435;28;20099;-75
2022/08/29 03:15:29;;;;;;;107.07;28.75;;;;;;;19.31;64.27;100040.28;5035744;28;20136;-78
2022/08/29 03:17:56;;;;;;;148.18;31.88;;;;;;;19.20;63.86;100030.56;5035972;28;20136;-77
2022/08/29 03:20:23;;;;;;;137.13;31.48;;;;;;;19.16;63.98;100031.91;5035515;28;20042;-75
2022/08/29 03:22:50;;;;;;;136.18;30.75;;;;;;;19.35;63.71;100038.94;5003111;28;20065;-76
2022/08/29 03:25:16;;;;;;;121.63;30.30;;;;;;;19.45;63.69;100050.53;5040612;28;20045;-76
2022/08/29 03:27:42;;;;;;;115.95;27.08;;;;;;;19.53;63.21;100030.72;5046475;28;20045;-76
2022/08/29 03:30:11;;;;;;;98.43;27.13;;;;;;;19.67;63.16;100042.81;5055211;28;20041;-76
2022/08/29 03:32:38;;;;;;;134.13;32.90;;;;;;;19.66;63.01;100036.56;5038499;28;20124;-82
2022/08/29 03:35:05;;;;;;;102.18;30.80;;;;;;;19.57;63.23;100034.81;5037856;28;20052;-76
2022/08/29 03:37:31;;;;;;;118.30;30.83;;;;;;;19.82;62.98;100043.88;5037908;28;20076;-85
2022/08/29 03:39:57;;;;;;;111.13;32.78;;;;;;;19.97;62.31;100039.56;5037588;28;20075;-76
2022/08/29 03:42:24;;;;;;;94.22;30.48;;;;;;;20.25;61.69;100039.25;5055351;28;20037;-83
2022/08/29 03:44:50;;;;;;;108.45;30.33;;;;;;;20.38;60.76;100042.28;5021658;28;20056;-77
2022/08/29 03:47:16;;;;;;;103.20;31.17;;;;;;;20.36;60.74;100033.47;5054203;28;20037;-81
2022/08/29 03:49:42;;;;;;;97.40;31.88;;;;;;;20.34;60.81;100043.66;5037902;28;20047;-79
2022/08/29 03:52:08;;;;;;;94.28;33.30;;;;;;;20.44;61.03;100043.50;5055005;28;20044;-77
2022/08/29 03:54:35;;;;;;;108.25;33.08;;;;;;;20.48;60.83;100042.97;5037439;28;20045;-79
2022/08/29 03:57:06;;;;;;;90.40;32.67;;;;;;;20.71;60.58;100039.59;5054043;28;20061;-77
2022/08/29 03:59:33;;;;;;;65.88;29.50;;;;;;;20.91;59.70;100037.38;5053918;28;20079;-79
2022/08/29 04:01:59;;;;;;;88.32;31.60;;;;;;;21.14;59.23;100045.63;5053193;28;20128;-76
2022/08/29 04:07:14;;;;;;;71.25;28.23;;;;;;;21.31;58.96;100039.13;5052179;28;20057;-77
2022/08/29 04:09:40;;;;;;;63.88;27.60;;;;;;;21.56;58.24;100043.50;5052631;28;20044;-77
2022/08/29 04:12:10;;;;;;;80.57;26.02;;;;;;;21.75;57.48;100042.22;5053971;28;20045;-77
2022/08/29 04:14:39;;;;;;;67.47;24.60;;;;;;;21.91;57.17;100046.72;5052524;28;20049;-78
2022/08/29 04:17:09;;;;;;;59.88;25.33;;;;;;;22.11;56.95;100046.25;5036400;28;20135;-76
2022/08/29 04:19:35;;;;;;;;;;;;;;;22.33;56.39;100045.44;5036089;28;20084;-75
2022/08/29 04:22:02;;;;;;;75.38;23.20;;;;;;;22.39;55.78;100033.00;5035665;28;19923;-78
2022/08/29 04:24:33;;;;;;;76.28;24.58;;;;;;;22.69;55.46;100045.69;5019488;28;20060;-77
2022/08/29 04:26:59;;;;;;;73.38;24.13;;;;;;;22.90;55.01;100036.78;5052684;28;20076;-76
2022/08/29 04:29:26;;;;;;;83.95;22.88;;;;;;;22.93;53.99;100035.59;5035898;28;20056;-76
2022/08/29 04:31:52;;;;;;;75.10;21.98;;;;;;;22.86;54.07;100051.81;5052367;28;20135;-76
2022/08/29 04:34:19;;;;;;;74.55;22.88;;;;;;;22.79;54.44;100050.84;5035369;28;20415;-77
2022/08/29 04:36:46;;;;;;;73.25;22.92;;;;;;;22.82;54.49;100047.75;5035266;28;20107;-78
2022/08/29 04:39:13;;;;;;;64.25;21.17;;;;;;;22.74;54.53;100042.38;5052222;28;20060;-77
2022/08/29 04:41:39;;;;;;;81.97;23.15;;;;;;;22.85;54.43;100050.13;5035307;28;20268;-77
2022/08/29 04:44:09;;;;;;;76.82;22.90;;;;;;;22.99;53.97;100052.06;5018921;28;20072;-77
2022/08/29 04:46:35;;;;;;;82.40;24.60;;;;;;;22.94;53.38;100043.59;5035277;28;20044;-79
2022/08/29 04:49:01;;;;;;;60.85;23.50;;;;;;;23.29;53.73;100046.63;5018737;28;20098;-78
2022/08/29 04:51:27;;;;;;;89.05;24.40;;;;;;;23.59;53.15;100047.47;5053810;28;20068;-78
2022/08/29 04:53:53;;;;;;;85.72;25.20;;;;;;;23.59;52.20;100046.63;5036862;28;20048;-78
2022/08/29 04:56:20;;;;;;;89.05;27.20;;;;;;;23.57;52.21;100040.50;5052627;28;20508;-77
2022/08/29 04:58:46;;;;;;;93.28;28.60;;;;;;;23.65;52.60;100045.84;5052637;28;20052;-79
2022/08/29 05:01:14;;;;;;;104.60;29.98;;;;;;;23.67;51.94;100043.81;5053631;28;20072;-78
2022/08/29 05:03:40;;;;;;;104.70;30.10;;;;;;;23.69;51.55;100042.56;5035981;28;20044;-77
2022/08/29 05:06:09;;;;;;;122.00;32.47;;;;;;;23.68;52.10;100029.13;5052375;28;20557;-78
2022/08/29 05:08:41;;;;;;;131.02;32.22;;;;;;;23.87;51.50;100042.16;5053591;28;20047;-78
2022/08/29 05:11:15;;;;;;;114.57;32.85;;;;;;;23.90;50.77;100046.41;5035911;28;20083;-77
2022/08/29 05:13:45;;;;;;;113.75;33.25;;;;;;;24.01;50.65;100042.34;5051796;28;20049;-78
2022/08/29 05:16:12;;;;;;;89.00;30.25;;;;;;;24.10;50.51;100044.72;5053751;28;20514;-77
2022/08/29 05:18:39;;;;;;;110.20;31.50;;;;;;;24.52;50.47;100054.00;5052859;28;20091;-77
2022/08/29 05:21:08;;;;;;;92.85;32.17;;;;;;;24.90;50.04;100054.56;5036434;28;20052;-77
2022/08/29 05:23:34;;;;;;;92.45;32.92;;;;;;;25.20;49.04;100046.19;5052890;28;20044;-78
2022/08/29 05:26:02;;;;;;;78.80;33.67;;;;;;;25.21;48.73;100036.94;5035611;28;20579;-78
2022/08/29 05:28:30;;;;;;;91.60;32.63;;;;;;;25.40;48.04;100041.66;5035361;28;20049;-78
2022/08/29 05:30:56;;;;;;;98.55;30.45;;;;;;;25.28;47.11;100043.28;5053347;28;20079;-79
2022/08/29 05:33:22;;;;;;;95.97;31.02;;;;;;;25.16;47.51;100034.81;5035654;28;20519;-78
2022/08/29 05:35:48;;;;;;;75.55;30.95;;;;;;;25.34;47.61;100038.88;5035636;28;20146;-78
2022/08/29 05:38:14;;;;;;;101.03;30.55;;;;;;;25.46;47.51;100036.41;5035190;28;20507;-78
2022/08/29 05:40:41;;;;;;;88.97;30.58;;;;;;;25.41;47.72;100032.41;5035412;28;20051;-80
2022/08/29 05:43:09;;;;;;;103.63;33.00;;;;;;;25.61;47.45;100029.78;5035438;28;20036;-79
2022/08/29 05:45:40;;;;;;;89.25;31.85;;;;;;;25.72;47.07;100016.53;5035435;28;20045;-79
2022/08/29 05:48:08;;;;;;;102.07;34.75;;;;;;;25.91;46.23;100015.78;5052185;28;20071;-78
2022/08/29 05:50:40;;;;;;;105.93;30.23;;;;;;;26.11;45.76;100018.59;5051550;28;20102;-79
2022/08/29 05:53:08;;;;;;;121.18;33.13;;;;;;;26.00;45.24;100002.75;5051595;28;20041;-78
2022/08/29 05:55:39;;;;;;;83.55;29.95;;;;;;;26.14;45.11;100029.16;5051360;28;20607;-78
2022/08/29 05:58:05;;;;;;;130.68;31.05;;;;;;;26.35;44.85;100022.63;5017295;28;20106;-78
2022/08/29 06:00:31;;;;;;;112.57;31.33;;;;;;;26.52;44.46;100023.97;5017728;28;20041;-77
2022/08/29 06:02:57;;;;;;;134.13;28.25;;;;;;;26.83;44.08;100015.09;5017744;28;20407;-78
2022/08/29 06:05:23;;;;;;;136.55;27.77;;;;;;;26.86;42.87;100014.66;5050848;28;20318;-77
2022/08/29 06:07:49;;;;;;;138.30;28.25;;;;;;;27.05;42.24;99999.22;5033996;28;20500;-78
2022/08/29 06:10:14;;;;;;;164.88;27.95;;;;;;;27.15;40.28;100009.78;5050732;28;20072;-77
2022/08/29 06:12:40;;;;;;;189.10;30.15;;;;;;;27.22;40.90;100005.13;5051900;28;20087;-77
2022/08/29 06:15:06;;;;;;;170.25;28.05;;;;;;;27.38;40.18;100005.69;5050684;28;20049;-78
2022/08/29 06:17:33;;;;;;;191.90;32.33;;;;;;;27.36;40.40;100003.19;5050651;28;20045;-78
2022/08/29 06:19:59;;;;;;;179.77;28.75;;;;;;;27.77;39.37;100005.59;5050557;28;20045;-78
2022/08/29 06:22:25;;;;;;;136.38;21.88;;;;;;;27.79;37.07;99997.13;5050621;28;20063;-79
2022/08/29 06:24:54;;;;;;;89.00;17.92;;;;;;;27.75;35.30;100006.84;5033402;28;20503;-78
2022/08/29 06:27:20;;;;;;;100.63;20.33;;;;;;;27.87;35.89;100004.25;5050550;28;20110;-79
2022/08/29 06:29:46;;;;;;;100.93;18.42;;;;;;;28.20;35.45;100010.41;5050374;28;20044;-78
2022/08/29 06:32:12;;;;;;;79.50;15.65;;;;;;;28.49;34.89;100010.88;5052104;28;20072;-78
2022/08/29 06:34:39;;;;;;;62.30;13.35;;;;;;;28.82;34.61;100009.75;5017355;28;20044;-79
2022/08/29 06:37:05;;;;;;;67.53;11.10;;;;;;;29.09;33.74;100005.69;5050251;28;20098;-79
2022/08/29 06:39:31;;;;;;;49.50;10.05;;;;;;;29.46;32.76;100002.97;5033502;28;20082;-78
2022/08/29 06:41:57;;;;;;;31.52;7.78;;;;;;;29.79;30.52;100004.47;5050106;28;20090;-79
2022/08/29 06:44:25;;;;;;;19.85;5.53;;;;;;;29.84;27.95;99993.59;5033606;28;20136;-78
2022/08/29 06:46:51;;;;;;;19.25;6.28;;;;;;;29.41;28.67;99989.03;5050193;28;20209;-79
2022/08/29 06:49:19;;;;;;;21.42;6.13;;;;;;;29.44;28.93;99988.56;5050283;28;20040;-79
2022/08/29 06:51:48;;;;;;;22.05;7.25;;;;;;;29.60;29.11;99992.63;5017189;28;20136;-78
2022/08/29 06:54:16;;;;;;;21.88;6.07;;;;;;;29.84;29.72;99986.19;5049987;28;20046;-78
2022/08/29 06:56:42;;;;;;;10.80;5.45;;;;;;;30.09;28.53;99997.06;4971925;28;1318847;-79
2022/08/29 06:59:09;;;;;;;13.00;5.55;;;;;;;29.69;26.72;99988.50;5052151;28;20041;-79
2022/08/29 07:01:35;;;;;;;9.50;5.15;;;;;;;29.21;27.17;99987.34;5034257;28;20045;-79
2022/08/29 07:04:02;;;;;;;26.00;6.50;;;;;;;28.90;27.33;99987.44;5051231;28;20408;-79
2022/08/29 07:06:29;;;;;;;30.35;7.13;;;;;;;28.76;28.14;99984.81;5034652;28;20411;-79
2022/08/29 07:08:57;;;;;;;30.75;7.93;;;;;;;28.63;29.04;99984.94;5051573;28;20136;-79
2022/08/29 07:11:31;;;;;;;20.63;7.43;;;;;;;29.06;29.48;99975.88;5050760;28;20106;-78
2022/08/29 07:14:00;;;;;;;44.42;8.48;;;;;;;29.63;29.10;99982.00;5050900;28;20045;-79
2022/08/29 07:16:27;;;;;;;38.97;9.13;;;;;;;29.94;28.33;99982.84;5017814;28;20135;-78
2022/08/29 07:18:53;;;;;;;47.55;9.05;;;;;;;30.20;28.95;99977.00;5051856;28;20071;-77
2022/08/29 07:21:23;;;;;;;45.13;9.15;;;;;;;30.53;28.83;99977.50;5050480;28;20143;-78
2022/08/29 07:23:50;;;;;;;55.05;10.05;;;;;;;30.79;28.57;99973.50;5033912;28;20037;-79
2022/08/29 07:26:22;;;;;;;48.13;10.75;;;;;;;31.05;28.61;99972.16;5051942;28;20440;-77
2022/08/29 07:28:49;;;;;;;45.13;10.23;;;;;;;30.52;28.66;99968.41;5050598;28;20453;-79
2022/08/29 07:31:15;;;;;;;39.15;9.55;;;;;;;30.16;28.91;99972.13;5033753;28;20068;-77
2022/08/29 07:33:42;;;;;;;41.92;8.63;;;;;;;30.43;28.91;99969.84;5051470;28;20091;-78
2022/08/29 07:36:08;;;;;;;41.67;9.32;;;;;;;30.93;28.65;99964.72;5052452;28;20037;-78
2022/08/29 07:38:34;;;;;;;31.45;8.95;;;;;;;31.44;27.96;99967.78;5037939;28;20037;-80
2022/08/29 07:41:05;;;;;;;36.83;8.60;;;;;;;31.79;27.51;99972.38;5055747;28;20107;-79
2022/08/29 07:43:32;;;;;;;40.00;8.75;;;;;;;32.10;27.01;99971.88;5037860;28;20139;-79
2022/08/29 07:45:58;;;;;;;33.30;8.07;;;;;;;32.37;26.73;99957.41;5055716;28;20091;-79
2022/08/29 07:48:25;;;;;;;26.13;7.82;;;;;;;32.63;26.44;99962.28;5021310;28;20044;-78
2022/08/29 07:50:51;;;;;;;32.67;7.93;;;;;;;32.80;26.23;99951.22;5037367;28;20037;-77
2022/08/29 07:53:18;;;;;;;26.80;8.05;;;;;;;32.98;25.93;99952.88;5053886;28;20045;-78
2022/08/29 07:55:44;;;;;;;29.33;7.40;;;;;;;33.17;25.70;99956.16;5037183;28;20118;-77
2022/08/29 07:58:10;;;;;;;22.35;7.10;;;;;;;33.24;25.75;99961.53;5054981;28;20492;-78
2022/08/29 08:00:36;;;;;;;23.23;7.43;;;;;;;33.30;25.09;99954.97;5021098;28;20040;-79
2022/08/29 08:03:02;;;;;;;24.52;6.25;;;;;;;33.38;24.79;99940.66;5055012;28;20048;-78
2022/08/29 08:05:28;;;;;;;31.00;6.90;;;;;;;33.54;24.59;99941.72;5055234;28;20052;-77
2022/08/29 08:07:54;;;;;;;18.38;6.93;;;;;;;33.77;24.57;99949.72;5053525;28;20049;-79
2022/08/29 08:10:20;;;;;;;20.58;5.32;;;;;;;33.94;24.21;99944.09;5053896;28;20376;-79
2022/08/29 08:12:47;;;;;;;18.08;5.60;;;;;;;34.03;23.52;99937.00;5054553;28;20040;-78
2022/08/29 08:15:15;;;;;;;30.35;6.10;;;;;;;33.99;23.18;99937.78;5054539;28;20519;-78
2022/08/29 08:17:41;;;;;;;26.77;8.02;;;;;;;33.84;23.60;99938.44;5036685;28;20044;-80
2022/08/29 08:20:08;;;;;;;23.80;6.10;;;;;;;34.10;23.40;99942.31;5020351;28;20082;-78
2022/08/29 08:22:35;;;;;;;16.30;5.60;;;;;;;34.23;23.09;99946.63;5053085;28;20099;-78
2022/08/29 08:25:02;;;;;;;23.73;6.63;;;;;;;34.39;22.66;99945.66;5036846;28;20071;-78
2022/08/29 08:27:29;;;;;;;;;;;;;;;33.50;22.60;99948.88;5053735;28;20044;-78
2022/08/29 08:29:55;;;;;;;28.70;6.75;;;;;;;33.07;23.53;99937.50;5054136;28;19916;-78
2022/08/29 08:32:21;;;;;;;50.63;7.55;;;;;;;33.47;23.77;99939.13;5054176;28;20048;-78
2022/08/29 08:34:47;;;;;;;70.38;9.30;;;;;;;33.70;23.75;99926.94;5036699;28;20045;-78
2022/08/29 08:37:13;;;;;;;37.60;6.85;;;;;;;33.96;23.66;99941.88;5036391;28;20041;-77
2022/08/29 08:39:39;;;;;;;58.42;8.30;;;;;;;33.47;22.87;99930.81;5054200;28;20128;-77
2022/08/29 08:42:27;;;;;;;43.55;8.63;;;;;;;32.80;23.67;99936.53;5036200;28;20125;-77
2022/08/29 08:45:10;;;;;;;45.40;8.57;;;;;;;33.36;23.94;99931.75;5036338;28;20041;-78
2022/08/29 08:47:48;;;;;;;50.30;8.02;;;;;;;33.97;23.68;99928.88;5036396;28;20131;-77
2022/08/29 08:50:36;;;;;;;35.58;6.88;;;;;;;34.26;22.62;99926.66;5052850;28;20480;-78
2022/08/29 08:53:06;;;;;;;;;;;;;;;33.34;22.28;99931.19;5036557;28;20499;-77
2022/08/29 08:55:55;;;;;;;45.72;6.38;;;;;;;33.48;22.96;99929.75;5053645;28;19960;-78
2022/08/29 08:58:24;;;;;;;49.72;8.07;;;;;;;33.42;22.42;99932.66;5019772;28;20040;-78
2022/08/29 09:00:59;;;;;;;44.85;7.85;;;;;;;33.07;22.17;99920.88;5052622;28;20051;-78
2022/08/29 09:03:47;;;;;;;37.22;7.15;;;;;;;33.20;22.43;99922.41;5035766;28;20048;-78
2022/08/29 09:06:38;;;;;;;33.30;6.45;;;;;;;32.97;21.94;99917.97;5036029;28;20407;-79
2022/08/29 09:09:22;;;;;;;40.47;6.28;;;;;;;32.60;22.70;99926.81;5036277;28;20103;-77
2022/08/29 09:12:05;;;;;;;29.67;5.82;;;;;;;32.81;22.33;99921.59;5019457;28;20060;-78
2022/08/29 09:14:40;;;;;;;39.35;6.68;;;;;;;33.11;22.27;99915.66;5035999;28;20076;-78
2022/08/29 09:17:11;;;;;;;30.42;5.00;;;;;;;33.28;22.16;99918.34;5052256;28;20134;-78
2022/08/29 09:19:37;;;;;;;32.17;5.63;;;;;;;32.99;21.94;99904.72;5035745;28;20508;-78
2022/08/29 09:22:15;;;;;;;30.70;5.45;;;;;;;32.69;22.24;99921.69;5052056;28;20052;-78
2022/08/29 09:24:49;;;;;;;23.13;5.13;;;;;;;32.43;22.78;99911.31;5035324;28;20109;-78
2022/08/29 09:27:23;;;;;;;23.10;5.18;;;;;;;32.79;22.21;99916.28;5052076;28;20060;-79
2022/08/29 09:29:57;;;;;;;16.20;5.10;;;;;;;32.92;22.50;99909.56;5052072;28;20609;-79
2022/08/29 09:32:26;;;;;;;23.17;5.22;;;;;;;33.03;22.29;99905.03;5035107;28;20049;-78
2022/08/29 09:34:52;;;;;;;21.75;6.18;;;;;;;32.99;22.35;99904.72;5052059;28;20037;-78
2022/08/29 09:37:26;;;;;;;26.00;5.97;;;;;;;33.17;21.83;99908.25;5052181;28;20086;-79
2022/08/29 09:39:55;;;;;;;21.10;5.65;;;;;;;33.30;21.81;99907.88;5035363;28;20041;-79
2022/08/29 09:42:22;;;;;;;18.13;5.60;;;;;;;33.63;22.13;99897.72;5051825;28;20075;-79
2022/08/29 09:44:54;;;;;;;15.05;5.70;;;;;;;34.10;22.02;99886.00;5035130;28;20083;-79
2022/08/29 09:47:26;;;;;;;22.15;5.47;;;;;;;34.70;21.86;99898.69;5052276;28;20064;-81
2022/08/29 09:50:08;;;;;;;21.92;5.10;;;;;;;35.26;21.27;99894.28;5052818;28;20526;-81
2022/08/29 09:52:37;;;;;;;18.40;4.97;;;;;;;35.64;20.71;99885.81;5051957;28;20048;-79
2022/08/29 09:55:17;;;;;;;22.00;5.40;;;;;;;35.87;20.00;99890.84;5034795;28;20045;-78
2022/08/29 09:57:49;;;;;;;27.95;6.18;;;;;;;34.88;20.71;99887.13;5051744;28;20040;-78
2022/08/29 10:00:25;;;;;;;14.68;5.30;;;;;;;34.13;21.35;99886.31;5051559;28;20094;-78
2022/08/29 10:02:58;;;;;;;28.80;6.03;;;;;;;33.78;21.99;99893.19;5052019;28;20491;-79
2022/08/29 10:05:43;;;;;;;30.38;5.55;;;;;;;34.46;21.17;99884.34;5018500;28;20178;-77
2022/08/29 10:08:30;;;;;;;18.13;5.13;;;;;;;35.24;20.46;99873.41;5051456;28;20048;-77
2022/08/29 10:10:59;;;;;;;20.02;5.55;;;;;;;35.26;20.32;99871.22;5051452;28;20091;-78
2022/08/29 10:13:49;;;;;;;24.05;6.60;;;;;;;35.25;20.36;99880.66;5051387;28;20039;-80
2022/08/29 10:16:36;;;;;;;28.17;5.95;;;;;;;34.86;20.53;99872.66;5034751;28;20041;-77
2022/08/29 10:19:09;;;;;;;19.88;6.20;;;;;;;35.31;20.14;99874.00;5034807;28;20055;-78
2022/08/29 10:22:04;;;;;;;22.50;6.13;;;;;;;36.24;19.50;99875.84;5052726;28;20098;-78
2022/08/29 10:24:52;;;;;;;19.60;6.13;;;;;;;36.82;18.80;99864.34;5034859;28;20063;-76
2022/08/29 10:27:24;;;;;;;63.75;7.40;;;;;;;36.54;18.99;99863.88;5052481;28;20053;-77
2022/08/29 10:29:58;;;;;;;21.35;6.07;;;;;;;36.14;19.01;99871.13;5052366;28;20412;-78
2022/08/29 10:32:30;;;;;;;28.92;6.25;;;;;;;36.45;19.18;99871.94;5051005;28;20090;-80
2022/08/29 10:35:06;;;;;;;24.85;6.38;;;;;;;36.83;18.45;99866.88;5051527;28;20041;-77
2022/08/29 10:37:50;;;;;;;21.10;5.68;;;;;;;36.07;19.07;99862.25;5050938;28;20271;-77
2022/08/29 10:40:41;;;;;;;24.98;5.90;;;;;;;36.02;19.34;99862.22;5051196;28;20044;-77
2022/08/29 10:43:25;;;;;;;26.65;6.05;;;;;;;36.71;19.03;99863.53;5034093;28;20082;-77
2022/08/29 10:45:53;;;;;;;19.63;5.90;;;;;;;37.49;18.51;99853.78;5051273;28;20186;-77
2022/08/29 10:48:33;;;;;;;33.80;6.95;;;;;;;37.78;17.55;99851.91;5018370;28;20052;-77
2022/08/29 10:51:20;;;;;;;34.42;6.78;;;;;;;37.46;17.99;99849.59;5051103;28;20041;-76
2022/08/29 10:54:09;;;;;;;25.53;6.53;;;;;;;37.31;17.75;99844.94;5018276;28;20045;-79
2022/08/29 10:56:43;;;;;;;33.60;6.03;;;;;;;37.76;17.70;99840.19;5033385;28;20067;-78
2022/08/29 10:59:36;;;;;;;34.17;6.40;;;;;;;37.71;17.14;99839.41;5034205;28;20041;-79
2022/08/29 11:02:07;;;;;;;16.80;6.05;;;;;;;37.52;17.87;99831.72;5034671;28;20041;-77
2022/08/29 11:04:37;;;;;;;24.92;5.93;;;;;;;37.50;17.98;99830.34;5051186;28;20048;-78
2022/08/29 11:07:15;;;;;;;22.25;5.75;;;;;;;37.52;17.80;99828.09;5051045;28;20484;-77
2022/08/29 11:10:25;;;;;;;21.33;5.28;;;;;;;37.63;17.81;99832.50;5034058;28;20041;-77
2022/08/29 11:13:00;;;;;;;18.73;4.60;;;;;;;37.55;17.60;99819.16;5052685;28;20500;-78
2022/08/29 11:15:56;;;;;;;15.02;4.50;;;;;;;37.19;18.06;99822.13;5054685;28;20072;-80
2022/08/29 11:18:30;;;;;;;17.08;5.00;;;;;;;36.35;18.88;99810.69;5054572;28;20044;-78
2022/08/29 11:21:18;;;;;;;16.10;4.65;;;;;;;36.09;19.10;99812.69;5021292;28;20044;-79
2022/08/29 11:23:46;;;;;;;16.85;5.45;;;;;;;36.21;18.79;99815.19;5021528;28;20055;-77
2022/08/29 11:26:21;;;;;;;21.60;5.50;;;;;;;36.59;18.82;99810.94;5037644;28;20099;-78
2022/08/29 11:29:12;;;;;;;15.30;4.80;;;;;;;37.10;18.28;99815.50;5037730;28;20070;-77
2022/08/29 11:31:47;;;;;;;15.18;4.90;;;;;;;37.03;18.20;99809.41;5037814;28;20214;-78